sensor_id;sensor_type;location;lat;lon;timestamp;pressure;altitude;pressure_sealevel;temperature;humidity
50093;BME280;35974;47.752;10.290;2023-03-16T00:03:09;93825.28;;;-2.82;100.00
50093;BME280;35974;47.752;10.290;2023-03-16T00:11:04;93749.16;;;-3.66;100.00
50093;BME280;35974;47.752;10.290;2023-03-16T00:25:56;94075.34;;;-1.73;100.00
50093;BME280;35974;47.752;10.290;2023-03-16T00:28:25;94052.13;;;-1.71;100.00
50093;BME280;35974;47.752;10.290;2023-03-16T00:30:52;94083.16;;;-1.74;100.00
50093;BME280;35974;47.752;10.290;2023-03-16T00:33:24;94070.94;;;-1.82;100.00
50093;BME280;35974;47.752;10.290;2023-03-16T00:35:51;94046.00;;;-2.01;100.00
50093;BME280;35974;47.752;10.290;2023-03-16T00:38:28;94077.41;;;-1.88;100.00
50093;BME280;35974;47.752;10.290;2023-03-16T00:40:55;94061.63;;;-2.04;100.00
50093;BME280;35974;47.752;10.290;2023-03-16T00:43:21;94068.78;;;-1.87;100.00
50093;BME280;35974;47.752;10.290;2023-03-16T00:45:48;94057.84;;;-2.00;100.00
50093;BME280;35974;47.752;10.290;2023-03-16T00:48:14;94074.75;;;-1.97;100.00
50093;BME280;35974;47.752;10.290;2023-03-16T00:50:41;94044.34;;;-2.02;100.00
50093;BME280;35974;47.752;10.290;2023-03-16T00:53:08;94063.25;;;-2.03;100.00
50093;BME280;35974;47.752;10.290;2023-03-16T00:55:34;94043.25;;;-2.21;100.00
50093;BME280;35974;47.752;10.290;2023-03-16T00:58:02;94035.41;;;-2.40;100.00
50093;BME280;35974;47.752;10.290;2023-03-16T01:00:30;94033.78;;;-2.41;100.00
50093;BME280;35974;47.752;10.290;2023-03-16T01:02:56;94059.56;;;-2.22;100.00
50093;BME280;35974;47.752;10.290;2023-03-16T01:05:23;94048.19;;;-2.29;100.00
50093;BME280;35974;47.752;10.290;2023-03-16T01:07:50;94042.63;;;-2.34;100.00
50093;BME280;35974;47.752;10.290;2023-03-16T01:10:17;94032.50;;;-2.35;100.00
50093;BME280;35974;47.752;10.290;2023-03-16T01:12:43;94051.25;;;-2.46;100.00
50093;BME280;35974;47.752;10.290;2023-03-16T01:15:10;94061.09;;;-2.63;100.00
50093;BME280;35974;47.752;10.290;2023-03-16T01:17:37;94022.25;;;-2.90;100.00
50093;BME280;35974;47.752;10.290;2023-03-16T01:20:03;94058.44;;;-2.29;100.00
50093;BME280;35974;47.752;10.290;2023-03-16T01:22:33;94050.47;;;-2.14;100.00
50093;BME280;35974;47.752;10.290;2023-03-16T01:24:59;94043.38;;;-2.22;100.00
50093;BME280;35974;47.752;10.290;2023-03-16T01:27:27;94034.75;;;-2.53;100.00
50093;BME280;35974;47.752;10.290;2023-03-16T01:29:53;94052.44;;;-2.62;100.00
50093;BME280;35974;47.752;10.290;2023-03-16T01:32:20;94040.81;;;-2.66;100.00
50093;BME280;35974;47.752;10.290;2023-03-16T01:34:46;94045.28;;;-2.79;100.00
50093;BME280;35974;47.752;10.290;2023-03-16T01:37:12;94028.59;;;-2.73;100.00
50093;BME280;35974;47.752;10.290;2023-03-16T01:39:39;94051.28;;;-2.58;100.00
50093;BME280;35974;47.752;10.290;2023-03-16T01:42:05;94028.06;;;-3.00;100.00
50093;BME280;35974;47.752;10.290;2023-03-16T01:44:49;94052.00;;;-2.78;100.00
50093;BME280;35974;47.752;10.290;2023-03-16T01:47:16;93999.00;;;-3.21;100.00
50093;BME280;35974;47.752;10.290;2023-03-16T01:49:44;94001.56;;;-3.10;100.00
50093;BME280;35974;47.752;10.290;2023-03-16T01:52:28;94039.72;;;-3.18;100.00
50093;BME280;35974;47.752;10.290;2023-03-16T01:55:06;94035.06;;;-3.02;100.00
50093;BME280;35974;47.752;10.290;2023-03-16T01:57:38;94028.06;;;-3.11;100.00
50093;BME280;35974;47.752;10.290;2023-03-16T02:00:13;94008.50;;;-3.23;100.00
50093;BME280;35974;47.752;10.290;2023-03-16T02:02:47;94002.94;;;-3.51;100.00
50093;BME280;35974;47.752;10.290;2023-03-16T02:05:19;94000.16;;;-3.48;100.00
50093;BME280;35974;47.752;10.290;2023-03-16T02:07:50;94013.41;;;-3.43;100.00
50093;BME280;35974;47.752;10.290;2023-03-16T02:10:18;94022.50;;;-3.16;100.00
50093;BME280;35974;47.752;10.290;2023-03-16T02:12:45;94021.56;;;-3.04;100.00
50093;BME280;35974;47.752;10.290;2023-03-16T02:15:14;94036.56;;;-3.22;100.00
50093;BME280;35974;47.752;10.290;2023-03-16T02:17:43;94014.94;;;-3.40;100.00
50093;BME280;35974;47.752;10.290;2023-03-16T02:22:51;94040.75;;;-3.21;100.00
50093;BME280;35974;47.752;10.290;2023-03-16T02:25:57;94037.16;;;-3.18;100.00
50093;BME280;35974;47.752;10.290;2023-03-16T02:28:36;94036.66;;;-3.01;100.00
50093;BME280;35974;47.752;10.290;2023-03-16T02:31:10;94022.03;;;-2.99;100.00
50093;BME280;35974;47.752;10.290;2023-03-16T02:33:38;94033.19;;;-3.00;100.00
50093;BME280;35974;47.752;10.290;2023-03-16T02:36:05;94015.84;;;-3.30;100.00
50093;BME280;35974;47.752;10.290;2023-03-16T02:38:32;94029.81;;;-3.34;100.00
50093;BME280;35974;47.752;10.290;2023-03-16T02:41:00;93993.41;;;-3.60;100.00
50093;BME280;35974;47.752;10.290;2023-03-16T02:43:35;93993.88;;;-3.66;100.00
50093;BME280;35974;47.752;10.290;2023-03-16T02:46:03;94030.50;;;-3.43;100.00
50093;BME280;35974;47.752;10.290;2023-03-16T02:48:42;94016.91;;;-3.21;100.00
50093;BME280;35974;47.752;10.290;2023-03-16T02:51:11;93999.47;;;-3.27;100.00
50093;BME280;35974;47.752;10.290;2023-03-16T02:53:37;94023.19;;;-3.37;100.00
50093;BME280;35974;47.752;10.290;2023-03-16T02:56:04;94010.13;;;-3.56;100.00
50093;BME280;35974;47.752;10.290;2023-03-16T02:58:30;94017.13;;;-3.58;100.00
50093;BME280;35974;47.752;10.290;2023-03-16T03:00:57;94001.31;;;-3.63;100.00
50093;BME280;35974;47.752;10.290;2023-03-16T03:03:24;93988.53;;;-3.41;100.00
50093;BME280;35974;47.752;10.290;2023-03-16T03:05:50;94032.16;;;-3.20;100.00
50093;BME280;35974;47.752;10.290;2023-03-16T03:08:17;94022.72;;;-3.19;100.00
50093;BME280;35974;47.752;10.290;2023-03-16T03:10:45;94014.81;;;-3.50;100.00
50093;BME280;35974;47.752;10.290;2023-03-16T03:13:11;94011.78;;;-3.55;100.00
50093;BME280;35974;47.752;10.290;2023-03-16T03:15:38;94026.91;;;-3.29;100.00
50093;BME280;35974;47.752;10.290;2023-03-16T03:18:05;94001.09;;;-3.49;100.00
50093;BME280;35974;47.752;10.290;2023-03-16T03:20:32;94023.63;;;-3.32;100.00
50093;BME280;35974;47.752;10.290;2023-03-16T03:22:58;94024.81;;;-3.47;100.00
50093;BME280;35974;47.752;10.290;2023-03-16T03:25:25;94019.13;;;-3.51;100.00
50093;BME280;35974;47.752;10.290;2023-03-16T03:27:51;93994.75;;;-3.79;100.00
50093;BME280;35974;47.752;10.290;2023-03-16T03:30:23;94014.09;;;-3.63;100.00
50093;BME280;35974;47.752;10.290;2023-03-16T03:32:50;94019.44;;;-3.66;100.00
50093;BME280;35974;47.752;10.290;2023-03-16T03:35:18;94025.50;;;-3.56;100.00
50093;BME280;35974;47.752;10.290;2023-03-16T03:37:44;93989.44;;;-3.76;100.00
50093;BME280;35974;47.752;10.290;2023-03-16T03:40:13;93994.09;;;-3.47;100.00
50093;BME280;35974;47.752;10.290;2023-03-16T03:42:40;94001.91;;;-3.48;100.00
50093;BME280;35974;47.752;10.290;2023-03-16T03:45:07;93975.38;;;-3.81;100.00
50093;BME280;35974;47.752;10.290;2023-03-16T03:47:34;93994.53;;;-3.76;100.00
50093;BME280;35974;47.752;10.290;2023-03-16T03:50:01;93989.78;;;-3.69;100.00
50093;BME280;35974;47.752;10.290;2023-03-16T03:52:27;94019.22;;;-3.63;100.00
50093;BME280;35974;47.752;10.290;2023-03-16T03:54:53;94021.31;;;-3.69;100.00
50093;BME280;35974;47.752;10.290;2023-03-16T03:57:20;94009.88;;;-3.76;100.00
50093;BME280;35974;47.752;10.290;2023-03-16T03:59:47;94018.25;;;-3.74;100.00
50093;BME280;35974;47.752;10.290;2023-03-16T04:02:13;93977.69;;;-3.90;100.00
50093;BME280;35974;47.752;10.290;2023-03-16T04:04:41;94011.28;;;-3.72;100.00
50093;BME280;35974;47.752;10.290;2023-03-16T04:07:08;94015.47;;;-3.71;100.00
50093;BME280;35974;47.752;10.290;2023-03-16T04:09:35;93988.03;;;-3.80;100.00
50093;BME280;35974;47.752;10.290;2023-03-16T04:12:03;93993.06;;;-3.67;100.00
50093;BME280;35974;47.752;10.290;2023-03-16T04:14:30;94015.72;;;-3.62;100.00
50093;BME280;35974;47.752;10.290;2023-03-16T04:16:56;93986.41;;;-3.81;100.00
50093;BME280;35974;47.752;10.290;2023-03-16T04:19:24;94007.56;;;-3.68;100.00
50093;BME280;35974;47.752;10.290;2023-03-16T04:21:51;93980.84;;;-3.75;100.00
50093;BME280;35974;47.752;10.290;2023-03-16T04:24:17;94003.19;;;-3.65;100.00
50093;BME280;35974;47.752;10.290;2023-03-16T04:26:44;94004.53;;;-3.73;100.00
50093;BME280;35974;47.752;10.290;2023-03-16T04:29:12;93979.91;;;-3.85;100.00
50093;BME280;35974;47.752;10.290;2023-03-16T04:31:40;93999.19;;;-3.70;100.00
50093;BME280;35974;47.752;10.290;2023-03-16T04:34:07;93983.16;;;-3.83;100.00
50093;BME280;35974;47.752;10.290;2023-03-16T04:36:34;93994.53;;;-3.76;100.00
50093;BME280;35974;47.752;10.290;2023-03-16T04:39:01;93978.25;;;-3.86;100.00
50093;BME280;35974;47.752;10.290;2023-03-16T04:41:27;93966.25;;;-3.97;100.00
50093;BME280;35974;47.752;10.290;2023-03-16T04:43:53;93969.66;;;-3.96;100.00
50093;BME280;35974;47.752;10.290;2023-03-16T04:46:20;93959.44;;;-3.96;100.00
50093;BME280;35974;47.752;10.290;2023-03-16T04:48:46;93950.13;;;-3.97;100.00
50093;BME280;35974;47.752;10.290;2023-03-16T04:51:13;93951.50;;;-3.93;100.00
50093;BME280;35974;47.752;10.290;2023-03-16T04:53:39;93951.06;;;-3.87;100.00
50093;BME280;35974;47.752;10.290;2023-03-16T04:56:06;93959.94;;;-3.69;100.00
50093;BME280;35974;47.752;10.290;2023-03-16T04:58:34;93961.66;;;-3.58;100.00
50093;BME280;35974;47.752;10.290;2023-03-16T05:01:00;93946.19;;;-3.56;100.00
50093;BME280;35974;47.752;10.290;2023-03-16T05:03:27;93962.72;;;-3.60;100.00
50093;BME280;35974;47.752;10.290;2023-03-16T05:05:53;93960.16;;;-3.72;100.00
50093;BME280;35974;47.752;10.290;2023-03-16T05:08:20;93965.97;;;-3.58;100.00
50093;BME280;35974;47.752;10.290;2023-03-16T05:10:46;93932.47;;;-3.89;100.00
50093;BME280;35974;47.752;10.290;2023-03-16T05:13:13;93952.69;;;-3.86;100.00
50093;BME280;35974;47.752;10.290;2023-03-16T05:15:40;93924.56;;;-3.97;100.00
50093;BME280;35974;47.752;10.290;2023-03-16T05:18:07;93949.69;;;-3.91;100.00
50093;BME280;35974;47.752;10.290;2023-03-16T05:20:33;93951.50;;;-3.93;100.00
50093;BME280;35974;47.752;10.290;2023-03-16T05:23:00;93956.16;;;-3.87;100.00
50093;BME280;35974;47.752;10.290;2023-03-16T05:25:26;93957.13;;;-3.77;100.00
50093;BME280;35974;47.752;10.290;2023-03-16T05:27:52;93959.69;;;-3.77;100.00
50093;BME280;35974;47.752;10.290;2023-03-16T05:30:19;93840.63;;;-4.49;100.00
50093;BME280;35974;47.752;10.290;2023-03-16T05:32:46;93956.88;;;-3.74;100.00
50093;BME280;35974;47.752;10.290;2023-03-16T05:35:12;93924.81;;;-3.89;100.00
50093;BME280;35974;47.752;10.290;2023-03-16T05:37:40;93955.50;;;-3.66;100.00
50093;BME280;35974;47.752;10.290;2023-03-16T05:42:53;93931.31;;;-3.74;100.00
50093;BME280;35974;47.752;10.290;2023-03-16T06:23:03;93944.53;;;-3.23;100.00
50093;BME280;35974;47.752;10.290;2023-03-16T06:25:29;93964.31;;;-3.14;100.00
50093;BME280;35974;47.752;10.290;2023-03-16T06:27:56;93958.50;;;-3.16;100.00
50093;BME280;35974;47.752;10.290;2023-03-16T06:30:22;93942.19;;;-3.04;100.00
50093;BME280;35974;47.752;10.290;2023-03-16T06:32:59;93954.94;;;-2.81;100.00
50093;BME280;35974;47.752;10.290;2023-03-16T06:35:27;93885.00;;;-3.25;100.00
50093;BME280;35974;47.752;10.290;2023-03-16T06:37:53;93946.53;;;-2.72;100.00
50093;BME280;35974;47.752;10.290;2023-03-16T06:40:20;93954.13;;;-2.49;100.00
50093;BME280;35974;47.752;10.290;2023-03-16T06:42:47;93941.31;;;-2.49;100.00
50093;BME280;35974;47.752;10.290;2023-03-16T06:45:13;93966.16;;;-2.29;100.00
50093;BME280;35974;47.752;10.290;2023-03-16T06:47:42;93934.50;;;-2.39;100.00
50093;BME280;35974;47.752;10.290;2023-03-16T06:50:09;93937.25;;;-2.31;100.00
50093;BME280;35974;47.752;10.290;2023-03-16T06:52:37;93968.88;;;-2.09;100.00
50093;BME280;35974;47.752;10.290;2023-03-16T06:55:03;93976.06;;;-2.03;100.00
50093;BME280;35974;47.752;10.290;2023-03-16T06:57:30;93935.22;;;-2.16;100.00
50093;BME280;35974;47.752;10.290;2023-03-16T06:59:57;93949.91;;;-1.97;100.00
50093;BME280;35974;47.752;10.290;2023-03-16T07:02:23;93919.38;;;-2.00;100.00
50093;BME280;35974;47.752;10.290;2023-03-16T07:04:50;93953.28;;;-1.75;100.00
50093;BME280;35974;47.752;10.290;2023-03-16T07:07:16;93936.22;;;-1.86;100.00
50093;BME280;35974;47.752;10.290;2023-03-16T07:09:44;93939.50;;;-1.74;100.00
50093;BME280;35974;47.752;10.290;2023-03-16T07:12:11;93939.09;;;-1.49;100.00
50093;BME280;35974;47.752;10.290;2023-03-16T07:14:47;93919.94;;;-1.44;100.00
50093;BME280;35974;47.752;10.290;2023-03-16T07:17:18;93953.78;;;-1.20;100.00
50093;BME280;35974;47.752;10.290;2023-03-16T07:19:44;93939.41;;;-1.32;100.00
50093;BME280;35974;47.752;10.290;2023-03-16T07:22:11;93952.72;;;-1.07;100.00
50093;BME280;35974;47.752;10.290;2023-03-16T07:24:37;93961.41;;;-1.08;100.00
50093;BME280;35974;47.752;10.290;2023-03-16T07:27:07;93941.94;;;-1.01;100.00
50093;BME280;35974;47.752;10.290;2023-03-16T07:29:36;93948.22;;;-0.75;100.00
50093;BME280;35974;47.752;10.290;2023-03-16T07:32:03;93946.06;;;-0.69;100.00
50093;BME280;35974;47.752;10.290;2023-03-16T07:34:29;93941.47;;;-0.66;100.00
50093;BME280;35974;47.752;10.290;2023-03-16T07:36:56;93936.34;;;-0.37;100.00
50093;BME280;35974;47.752;10.290;2023-03-16T07:39:22;93951.22;;;-0.30;100.00
50093;BME280;35974;47.752;10.290;2023-03-16T07:41:49;93894.94;;;-0.53;100.00
50093;BME280;35974;47.752;10.290;2023-03-16T07:44:15;93930.13;;;-0.24;100.00
50093;BME280;35974;47.752;10.290;2023-03-16T07:46:41;93941.16;;;0.06;100.00
50093;BME280;35974;47.752;10.290;2023-03-16T07:49:10;93939.53;;;0.05;100.00
50093;BME280;35974;47.752;10.290;2023-03-16T07:51:37;93914.78;;;0.04;100.00
50093;BME280;35974;47.752;10.290;2023-03-16T07:54:04;93927.88;;;0.20;100.00
50093;BME280;35974;47.752;10.290;2023-03-16T07:56:30;93933.91;;;0.39;100.00
50093;BME280;35974;47.752;10.290;2023-03-16T07:59:23;93945.28;;;0.46;100.00
50093;BME280;35974;47.752;10.290;2023-03-16T08:01:50;93943.38;;;0.48;100.00
50093;BME280;35974;47.752;10.290;2023-03-16T08:04:16;93934.81;;;0.57;100.00
50093;BME280;35974;47.752;10.290;2023-03-16T08:06:42;93937.78;;;0.62;100.00
50093;BME280;35974;47.752;10.290;2023-03-16T08:09:09;93940.53;;;0.79;100.00
50093;BME280;35974;47.752;10.290;2023-03-16T08:11:35;93952.88;;;0.85;100.00
50093;BME280;35974;47.752;10.290;2023-03-16T08:14:02;93936.25;;;0.97;100.00
50093;BME280;35974;47.752;10.290;2023-03-16T08:16:30;93954.09;;;1.08;100.00
50093;BME280;35974;47.752;10.290;2023-03-16T08:19:08;93969.81;;;1.33;100.00
50093;BME280;35974;47.752;10.290;2023-03-16T08:21:36;93973.69;;;1.47;100.00
50093;BME280;35974;47.752;10.290;2023-03-16T08:24:23;93951.03;;;1.23;97.96
50093;BME280;35974;47.752;10.290;2023-03-16T08:26:49;93955.91;;;1.26;100.00
50093;BME280;35974;47.752;10.290;2023-03-16T08:29:15;93915.03;;;1.31;98.41
50093;BME280;35974;47.752;10.290;2023-03-16T08:31:48;93955.34;;;1.68;97.98
50093;BME280;35974;47.752;10.290;2023-03-16T08:34:14;93973.47;;;1.76;97.61
50093;BME280;35974;47.752;10.290;2023-03-16T08:36:41;93886.81;;;1.48;96.53
50093;BME280;35974;47.752;10.290;2023-03-16T08:39:09;93939.72;;;1.88;95.21
50093;BME280;35974;47.752;10.290;2023-03-16T08:41:37;93953.47;;;1.96;95.55
50093;BME280;35974;47.752;10.290;2023-03-16T08:44:05;93949.56;;;2.10;95.60
50093;BME280;35974;47.752;10.290;2023-03-16T08:46:33;93955.44;;;2.20;95.95
50093;BME280;35974;47.752;10.290;2023-03-16T08:49:00;93937.94;;;2.32;93.29
50093;BME280;35974;47.752;10.290;2023-03-16T08:51:28;93970.28;;;2.71;93.25
50093;BME280;35974;47.752;10.290;2023-03-16T08:53:54;93968.84;;;2.68;93.72
50093;BME280;35974;47.752;10.290;2023-03-16T08:56:21;93939.16;;;2.81;91.69
50093;BME280;35974;47.752;10.290;2023-03-16T08:58:51;93939.63;;;2.76;90.96
50093;BME280;35974;47.752;10.290;2023-03-16T09:01:17;93961.00;;;2.86;89.68
50093;BME280;35974;47.752;10.290;2023-03-16T09:03:44;93943.50;;;2.72;89.23
50093;BME280;35974;47.752;10.290;2023-03-16T09:06:14;93968.22;;;3.09;88.24
50093;BME280;35974;47.752;10.290;2023-03-16T09:08:41;93962.78;;;3.28;89.11
50093;BME280;35974;47.752;10.290;2023-03-16T09:11:11;93927.81;;;3.08;88.80
50093;BME280;35974;47.752;10.290;2023-03-16T09:13:40;93954.34;;;3.18;88.17
50093;BME280;35974;47.752;10.290;2023-03-16T09:16:07;93943.72;;;3.38;88.76
50093;BME280;35974;47.752;10.290;2023-03-16T09:18:35;93910.59;;;3.33;89.73
50093;BME280;35974;47.752;10.290;2023-03-16T11:56:24;93783.69;;;9.84;41.14
50093;BME280;35974;47.752;10.290;2023-03-16T11:59:02;93807.44;;;10.03;39.01
50093;BME280;35974;47.752;10.290;2023-03-16T12:18:25;93762.38;;;10.01;40.74
50093;BME280;35974;47.752;10.290;2023-03-16T12:20:58;93811.38;;;10.59;39.93
50093;BME280;35974;47.752;10.290;2023-03-16T12:24:03;93806.59;;;10.49;36.89
50093;BME280;35974;47.752;10.290;2023-03-16T12:26:35;93800.16;;;10.12;37.52
50093;BME280;35974;47.752;10.290;2023-03-16T12:32:32;93661.34;;;9.21;36.61
50093;BME280;35974;47.752;10.290;2023-03-16T12:35:35;93795.34;;;10.29;38.51
50093;BME280;35974;47.752;10.290;2023-03-16T12:38:29;93691.19;;;9.99;39.06
50093;BME280;35974;47.752;10.290;2023-03-16T12:44:10;93755.03;;;10.63;39.32
50093;BME280;35974;47.752;10.290;2023-03-16T12:46:50;93747.44;;;10.93;39.00
50093;BME280;35974;47.752;10.290;2023-03-16T12:49:32;93706.81;;;10.91;38.38
50093;BME280;35974;47.752;10.290;2023-03-16T12:52:08;93717.06;;;10.92;38.15
50093;BME280;35974;47.752;10.290;2023-03-16T12:54:51;93672.16;;;10.50;36.02
50093;BME280;35974;47.752;10.290;2023-03-16T13:00:39;93715.81;;;11.02;37.80
50093;BME280;35974;47.752;10.290;2023-03-16T13:03:15;93775.66;;;10.91;35.51
50093;BME280;35974;47.752;10.290;2023-03-16T13:05:59;93637.91;;;10.00;36.56
50093;BME280;35974;47.752;10.290;2023-03-16T13:08:26;93766.00;;;11.30;36.74
50093;BME280;35974;47.752;10.290;2023-03-16T13:11:08;93674.22;;;10.35;34.94
50093;BME280;35974;47.752;10.290;2023-03-16T13:13:50;93770.97;;;11.07;35.33
50093;BME280;35974;47.752;10.290;2023-03-16T13:16:38;93756.00;;;11.14;35.93
50093;BME280;35974;47.752;10.290;2023-03-16T13:19:28;93721.72;;;11.22;37.50
50093;BME280;35974;47.752;10.290;2023-03-16T13:22:18;93760.50;;;11.70;36.79
50093;BME280;35974;47.752;10.290;2023-03-16T13:25:12;93760.25;;;11.47;35.14
50093;BME280;35974;47.752;10.290;2023-03-16T13:27:44;93712.59;;;10.99;35.42
50093;BME280;35974;47.752;10.290;2023-03-16T13:30:23;93691.63;;;10.99;36.28
50093;BME280;35974;47.752;10.290;2023-03-16T13:32:55;93504.50;;;10.20;36.77
50093;BME280;35974;47.752;10.290;2023-03-16T13:35:27;93567.19;;;10.40;35.49
50093;BME280;35974;47.752;10.290;2023-03-16T13:38:13;93756.25;;;12.01;35.43
50093;BME280;35974;47.752;10.290;2023-03-16T13:40:51;93751.72;;;12.08;35.62
50093;BME280;35974;47.752;10.290;2023-03-16T13:43:22;93676.63;;;11.20;34.97
50093;BME280;35974;47.752;10.290;2023-03-16T13:45:49;93682.69;;;11.14;34.71
50093;BME280;35974;47.752;10.290;2023-03-16T13:48:16;93695.25;;;11.62;35.58
50093;BME280;35974;47.752;10.290;2023-03-16T13:50:56;93746.81;;;12.19;33.26
50093;BME280;35974;47.752;10.290;2023-03-16T13:53:26;93669.03;;;11.62;34.67
50093;BME280;35974;47.752;10.290;2023-03-16T13:56:16;93740.94;;;11.98;33.35
50093;BME280;35974;47.752;10.290;2023-03-16T13:58:59;93736.75;;;12.16;34.99
50093;BME280;35974;47.752;10.290;2023-03-16T14:01:29;93728.47;;;12.37;35.77
50093;BME280;35974;47.752;10.290;2023-03-16T14:04:00;93732.69;;;12.57;35.05
50093;BME280;35974;47.752;10.290;2023-03-16T14:06:34;93679.63;;;12.36;34.76
50093;BME280;35974;47.752;10.290;2023-03-16T14:09:04;93725.97;;;12.79;32.46
50093;BME280;35974;47.752;10.290;2023-03-16T14:11:31;93699.75;;;12.42;32.72
50093;BME280;35974;47.752;10.290;2023-03-16T14:14:13;93667.97;;;12.32;33.43
50093;BME280;35974;47.752;10.290;2023-03-16T14:16:40;93653.63;;;11.72;34.02
50093;BME280;35974;47.752;10.290;2023-03-16T14:19:34;93730.94;;;12.32;35.05
50093;BME280;35974;47.752;10.290;2023-03-16T14:22:28;93714.00;;;12.09;33.42
50093;BME280;35974;47.752;10.290;2023-03-16T14:25:06;93556.25;;;11.07;34.64
50093;BME280;35974;47.752;10.290;2023-03-16T14:27:45;93608.28;;;11.47;36.11
50093;BME280;35974;47.752;10.290;2023-03-16T14:30:23;93625.22;;;11.69;36.85
50093;BME280;35974;47.752;10.290;2023-03-16T14:32:58;93682.81;;;12.01;35.03
50093;BME280;35974;47.752;10.290;2023-03-16T14:35:39;93590.19;;;11.20;35.29
50093;BME280;35974;47.752;10.290;2023-03-16T14:38:33;93723.78;;;12.21;35.34
50093;BME280;35974;47.752;10.290;2023-03-16T14:41:28;93723.66;;;12.34;35.33
50093;BME280;35974;47.752;10.290;2023-03-16T14:43:59;93718.31;;;12.22;34.99
50093;BME280;35974;47.752;10.290;2023-03-16T14:46:39;93627.31;;;11.35;34.73
50093;BME280;35974;47.752;10.290;2023-03-16T14:49:21;93472.25;;;10.33;34.08
50093;BME280;35974;47.752;10.290;2023-03-16T14:51:57;93478.28;;;10.40;36.16
50093;BME280;35974;47.752;10.290;2023-03-16T14:54:34;93665.28;;;11.77;36.29
50093;BME280;35974;47.752;10.290;2023-03-16T14:57:03;93680.94;;;12.08;35.76
50093;BME280;35974;47.752;10.290;2023-03-16T14:59:33;93448.69;;;10.65;35.01
50093;BME280;35974;47.752;10.290;2023-03-16T15:02:15;93585.97;;;11.19;34.77
50093;BME280;35974;47.752;10.290;2023-03-16T15:04:49;93662.84;;;11.31;35.99
50093;BME280;35974;47.752;10.290;2023-03-16T15:07:23;93700.66;;;11.86;35.86
50093;BME280;35974;47.752;10.290;2023-03-16T15:09:52;93630.84;;;11.48;34.19
50093;BME280;35974;47.752;10.290;2023-03-16T15:12:22;93644.00;;;11.66;35.32
50093;BME280;35974;47.752;10.290;2023-03-16T15:15:13;93730.34;;;12.67;34.93
50093;BME280;35974;47.752;10.290;2023-03-16T15:17:49;93643.19;;;12.09;35.67
50093;BME280;35974;47.752;10.290;2023-03-16T15:20:23;93595.81;;;11.86;35.30
50093;BME280;35974;47.752;10.290;2023-03-16T15:22:58;93715.84;;;12.64;35.58
50093;BME280;35974;47.752;10.290;2023-03-16T15:28:14;93704.25;;;12.17;35.21
50093;BME280;35974;47.752;10.290;2023-03-16T15:30:46;93716.06;;;12.26;35.16
50093;BME280;35974;47.752;10.290;2023-03-16T15:33:24;93698.31;;;11.78;36.41
50093;BME280;35974;47.752;10.290;2023-03-16T15:35:55;93701.66;;;11.66;37.65
50093;BME280;35974;47.752;10.290;2023-03-16T15:38:44;93654.41;;;11.29;39.25
50093;BME280;35974;47.752;10.290;2023-03-16T15:41:12;93687.22;;;11.57;38.77
50093;BME280;35974;47.752;10.290;2023-03-16T15:43:44;93718.34;;;11.97;37.50
50093;BME280;35974;47.752;10.290;2023-03-16T15:46:17;93660.22;;;12.00;37.00
50093;BME280;35974;47.752;10.290;2023-03-16T15:48:44;93633.13;;;11.63;36.18
50093;BME280;35974;47.752;10.290;2023-03-16T15:51:28;93658.22;;;12.02;37.18
50093;BME280;35974;47.752;10.290;2023-03-16T15:54:05;93599.47;;;11.85;36.46
50093;BME280;35974;47.752;10.290;2023-03-16T15:56:39;93644.53;;;12.19;35.82
50093;BME280;35974;47.752;10.290;2023-03-16T15:59:30;93696.50;;;12.03;35.92
50093;BME280;35974;47.752;10.290;2023-03-16T16:05:30;93669.94;;;12.00;36.31
50093;BME280;35974;47.752;10.290;2023-03-16T16:08:03;93636.38;;;11.40;36.74
50093;BME280;35974;47.752;10.290;2023-03-16T16:10:32;93643.91;;;11.29;36.45
50093;BME280;35974;47.752;10.290;2023-03-16T16:13:00;93693.09;;;11.78;37.67
50093;BME280;35974;47.752;10.290;2023-03-16T16:16:01;93700.19;;;11.45;36.53
50093;BME280;35974;47.752;10.290;2023-03-16T16:18:35;93612.97;;;10.56;37.98
50093;BME280;35974;47.752;10.290;2023-03-16T16:21:06;93648.38;;;10.58;38.67
50093;BME280;35974;47.752;10.290;2023-03-16T16:23:34;93582.56;;;10.16;38.58
50093;BME280;35974;47.752;10.290;2023-03-16T16:26:06;93705.06;;;10.78;38.76
50093;BME280;35974;47.752;10.290;2023-03-16T16:28:35;93697.13;;;10.46;39.45
50093;BME280;35974;47.752;10.290;2023-03-16T16:31:24;93708.44;;;10.40;39.39
50093;BME280;35974;47.752;10.290;2023-03-16T16:33:51;93649.56;;;9.97;39.31
50093;BME280;35974;47.752;10.290;2023-03-16T16:36:18;93704.38;;;10.44;39.74
50093;BME280;35974;47.752;10.290;2023-03-16T16:38:47;93708.81;;;10.23;40.27
50093;BME280;35974;47.752;10.290;2023-03-16T16:41:40;93711.66;;;10.15;40.49
50093;BME280;35974;47.752;10.290;2023-03-16T16:44:34;93711.72;;;9.95;40.38
50093;BME280;35974;47.752;10.290;2023-03-16T16:47:27;93704.47;;;9.90;42.14
50093;BME280;35974;47.752;10.290;2023-03-16T16:49:54;93698.69;;;9.75;42.59
50093;BME280;35974;47.752;10.290;2023-03-16T16:52:25;93655.50;;;9.39;41.96
50093;BME280;35974;47.752;10.290;2023-03-16T16:54:53;93710.53;;;9.58;44.27
50093;BME280;35974;47.752;10.290;2023-03-16T16:57:22;93721.38;;;9.55;48.40
50093;BME280;35974;47.752;10.290;2023-03-16T16:59:49;93645.00;;;8.72;48.99
50093;BME280;35974;47.752;10.290;2023-03-16T17:04:52;93715.16;;;8.54;53.22
50093;BME280;35974;47.752;10.290;2023-03-16T17:07:32;93706.25;;;8.41;52.75
50093;BME280;35974;47.752;10.290;2023-03-16T17:09:59;93659.88;;;7.82;54.27
50093;BME280;35974;47.752;10.290;2023-03-16T17:12:27;93733.97;;;8.07;54.99
50093;BME280;35974;47.752;10.290;2023-03-16T17:14:55;93663.97;;;7.35;57.89
50093;BME280;35974;47.752;10.290;2023-03-16T17:17:21;93631.66;;;7.01;58.10
50093;BME280;35974;47.752;10.290;2023-03-16T17:19:53;93738.28;;;7.65;57.50